Time;durP1;ratioP1;P1;durP2;ratioP2;P2;SDS_P1;SDS_P2;PMS_P1;PMS_P2;Temp;Humidity;BMP_temperature;BMP_pressure;BME280_temperature;BME280_humidity;BME280_pressure;Samples;Min_cycle;Max_cycle;Signal;HPM_P1;HPM_P2
2023/01/14 07:15:21;;;;;;;4.63;0.98;;;15.50;98.30;;;;;;10552805;27;20123;-24
2023/01/14 07:20:23;;;;;;;7.95;1.48;;;15.30;99.90;;;;;;10563822;28;20070;-26
2023/01/14 07:25:25;;;;;;;5.37;1.63;;;15.30;99.00;;;;;;10559674;28;20040;-26
2023/01/14 07:30:28;;;;;;;5.03;1.65;;;15.00;99.90;;;;;;10561103;28;20090;-25
2023/01/14 07:35:30;;;;;;;4.57;1.02;;;14.90;99.90;;;;;;10560872;28;20072;-29
2023/01/14 07:40:32;;;;;;;3.38;0.85;;;15.20;99.90;;;;;;10540528;28;20071;-27
2023/01/14 07:45:35;;;;;;;7.65;1.45;;;15.30;99.90;;;;;;10554338;28;20500;-25
2023/01/14 07:50:37;;;;;;;2.40;1.00;;;14.40;99.90;;;;;;10559055;28;20076;-26
2023/01/14 07:55:39;;;;;;;4.38;1.30;;;15.00;99.90;;;;;;10555774;28;20122;-26
2023/01/14 08:00:43;;;;;;;4.32;1.20;;;14.90;99.90;;;;;;10560878;28;20081;-27
2023/01/14 08:05:45;;;;;;;5.72;1.30;;;14.70;99.90;;;;;;10558243;28;20499;-26
2023/01/14 08:10:47;;;;;;;3.88;1.55;;;14.60;99.90;;;;;;10564344;28;20105;-26
2023/01/14 08:15:56;;;;;;;5.70;1.38;;;14.50;99.90;;;;;;10558769;28;20043;-25
2023/01/14 08:20:58;;;;;;;3.33;1.40;;;14.50;99.90;;;;;;10559310;28;20072;-26
2023/01/14 08:26:00;;;;;;;4.55;1.38;;;14.00;99.90;;;;;;10538763;28;20041;-26
2023/01/14 08:31:04;;;;;;;7.05;1.52;;;15.40;99.90;;;;;;10523514;28;20040;-26
2023/01/14 08:36:08;;;;;;;5.53;1.55;;;15.10;99.90;;;;;;10528066;28;20123;-25
2023/01/14 08:41:12;;;;;;;3.05;1.00;;;14.40;99.90;;;;;;10525421;28;20055;-27
2023/01/14 08:46:16;;;;;;;3.40;1.00;;;15.20;99.90;;;;;;10521358;28;20127;-26
2023/01/14 08:51:18;;;;;;;2.15;1.02;;;14.50;99.90;;;;;;10530958;28;20094;-28
2023/01/14 08:56:20;;;;;;;4.40;1.10;;;14.20;99.90;;;;;;10521036;28;20044;-27
2023/01/14 09:01:23;;;;;;;6.47;1.47;;;14.80;99.90;;;;;;10526682;28;20084;-27
2023/01/14 09:06:25;;;;;;;3.63;1.73;;;13.50;99.90;;;;;;10521030;28;20125;-27
2023/01/14 09:17:10;;;;;;;5.35;1.17;;;14.40;99.90;;;;;;10509210;28;20056;-27
2023/01/14 09:22:18;;;;;;;7.00;1.15;;;14.20;99.90;;;;;;10524188;28;20048;-26
2023/01/14 09:27:21;;;;;;;9.52;1.25;;;13.60;99.90;;;;;;10517611;28;20506;-26
2023/01/14 09:32:24;;;;;;;6.07;1.17;;;14.20;99.90;;;;;;10530090;28;20052;-27
2023/01/14 09:37:26;;;;;;;4.85;1.15;;;14.80;99.90;;;;;;10523766;28;20036;-27
2023/01/14 09:42:31;;;;;;;4.03;0.60;;;15.50;99.90;;;;;;10530513;28;20113;-26
2023/01/14 09:47:34;;;;;;;9.43;0.98;;;14.40;99.90;;;;;;10529348;28;20131;-26
2023/01/14 09:52:50;;;;;;;6.82;1.80;;;14.40;99.90;;;;;;10533342;28;20110;-26
2023/01/14 09:57:55;;;;;;;8.18;1.17;;;13.90;99.90;;;;;;10528697;28;20130;-26
2023/01/14 10:03:11;;;;;;;4.68;1.20;;;15.20;99.90;;;;;;10531231;28;20097;-25
2023/01/14 10:08:15;;;;;;;2.38;0.82;;;15.80;99.90;;;;;;10521847;28;20071;-25
2023/01/14 10:13:22;;;;;;;6.28;1.92;;;15.40;99.90;;;;;;10511610;28;20786;-26
2023/01/14 10:18:29;;;;;;;5.53;0.80;;;14.50;99.90;;;;;;10524265;28;20404;-26
2023/01/14 10:23:37;;;;;;;2.30;1.40;;;14.10;99.90;;;;;;10517537;28;20078;-26
2023/01/14 10:28:39;;;;;;;4.68;1.13;;;13.60;99.90;;;;;;10527283;28;20048;-25
2023/01/14 10:33:42;;;;;;;2.33;1.13;;;14.20;99.90;;;;;;10531133;28;20539;-31
2023/01/14 10:38:45;;;;;;;6.97;1.63;;;13.00;99.90;;;;;;10519004;28;20476;-28
2023/01/14 10:43:47;;;;;;;4.82;0.98;;;13.00;99.90;;;;;;10528623;28;20056;-26
2023/01/14 10:48:58;;;;;;;5.70;1.10;;;12.90;99.90;;;;;;10516476;28;20056;-29
2023/01/14 10:54:11;;;;;;;5.65;1.20;;;12.10;99.90;;;;;;10512831;28;20156;-27
2023/01/14 10:59:38;;;;;;;3.33;0.90;;;12.40;99.90;;;;;;10514834;28;20040;-27
2023/01/14 11:04:43;;;;;;;2.15;0.85;;;13.80;99.90;;;;;;10508654;28;20127;-26
2023/01/14 11:09:45;;;;;;;0.73;0.65;;;13.10;99.90;;;;;;10523530;28;20556;-26
2023/01/14 11:14:47;;;;;;;3.03;0.73;;;14.30;99.90;;;;;;10514917;28;20052;-25
2023/01/14 11:19:51;;;;;;;2.30;1.00;;;14.20;99.90;;;;;;10512516;28;20119;-26
2023/01/14 11:24:54;;;;;;;8.35;1.52;;;13.00;99.90;;;;;;10519548;28;20075;-25
2023/01/14 11:29:58;;;;;;;4.35;0.90;;;12.60;99.90;;;;;;10505860;28;20113;-27
2023/01/14 11:35:04;;;;;;;1.52;0.57;;;11.90;99.90;;;;;;10529627;28;20791;-27
2023/01/14 11:40:20;;;;;;;5.78;1.58;;;12.20;99.90;;;;;;10512795;28;20401;-26
2023/01/14 11:45:22;;;;;;;1.55;0.55;;;11.90;99.90;;;;;;10510765;28;20087;-29
2023/01/14 11:50:28;;;;;;;10.02;1.58;;;12.50;99.90;;;;;;10518944;28;20049;-25
2023/01/14 11:55:33;;;;;;;6.20;0.90;;;12.40;99.90;;;;;;10508193;28;20052;-26
2023/01/14 12:00:38;;;;;;;4.63;0.77;;;11.90;99.90;;;;;;10526602;28;20075;-26
2023/01/14 12:05:43;;;;;;;2.75;0.77;;;12.50;99.90;;;;;;10522594;28;20117;-25
2023/01/14 12:10:48;;;;;;;3.67;1.25;;;12.00;99.90;;;;;;10530613;28;20055;-26
2023/01/14 12:21:16;;;;;;;4.28;0.63;;;12.00;99.90;;;;;;10530014;28;20484;-26
2023/01/14 12:26:23;;;;;;;3.80;0.93;;;12.30;99.90;;;;;;10525529;28;20130;-28
2023/01/14 12:31:30;;;;;;;3.78;0.95;;;12.80;99.90;;;;;;10524070;28;20040;-27
2023/01/14 12:36:41;;;;;;;3.08;1.10;;;11.00;99.90;;;;;;10521440;28;20131;-26
2023/01/14 12:47:08;;;;;;;2.42;0.80;;;11.40;99.90;;;;;;10525181;28;20040;-25
2023/01/14 12:52:13;;;;;;;1.38;1.08;;;11.70;99.90;;;;;;10522043;28;20093;-26
2023/01/14 12:57:21;;;;;;;3.67;1.08;;;11.70;99.90;;;;;;10535935;28;20040;-26
2023/01/14 13:02:31;;;;;;;4.00;1.13;;;10.90;99.90;;;;;;10531866;28;20651;-26
2023/01/14 13:07:37;;;;;;;3.70;0.90;;;11.30;99.90;;;;;;10528151;28;20477;-26
2023/01/14 13:12:48;;;;;;;3.83;1.20;;;11.60;99.90;;;;;;10511725;28;20126;-26
2023/01/14 13:17:54;;;;;;;2.40;0.93;;;11.20;99.90;;;;;;10525371;28;20071;-26
2023/01/14 13:22:58;;;;;;;1.85;1.42;;;11.20;99.90;;;;;;10527335;28;20062;-26
2023/01/14 13:28:02;;;;;;;4.15;0.77;;;11.30;99.90;;;;;;10523804;28;20571;-26
2023/01/14 13:33:16;;;;;;;;;;;11.20;99.90;;;;;;10540425;28;20487;-28
2023/01/14 13:38:23;;;;;;;4.40;1.77;;;11.60;99.90;;;;;;10512466;28;19930;-26
2023/01/14 13:43:27;;;;;;;2.60;1.38;;;11.30;99.90;;;;;;10494266;28;20060;-28
2023/01/14 13:48:35;;;;;;;1.27;0.70;;;11.60;99.90;;;;;;10530932;28;20066;-27
2023/01/14 13:53:39;;;;;;;3.60;0.95;;;11.80;99.90;;;;;;10525144;28;20079;-26
2023/01/14 13:58:46;;;;;;;1.83;0.80;;;11.40;99.90;;;;;;10528681;28;20137;-28
2023/01/14 14:03:48;;;;;;;2.33;0.80;;;11.80;99.90;;;;;;10530019;28;20051;-27
2023/01/14 14:08:55;;;;;;;1.65;0.90;;;11.30;99.90;;;;;;10529696;28;20454;-28
2023/01/14 14:14:07;;;;;;;2.78;0.63;;;11.40;99.90;;;;;;10520298;28;20148;-28
2023/01/14 14:19:16;;;;;;;4.93;0.93;;;11.70;99.90;;;;;;10524010;28;20547;-26
2023/01/14 14:24:24;;;;;;;2.60;0.75;;;11.50;99.90;;;;;;10527194;28;20047;-26
2023/01/14 14:29:27;;;;;;;0.75;0.60;;;11.60;99.90;;;;;;10528310;28;20076;-27
2023/01/14 14:34:29;;;;;;;1.48;0.52;;;11.60;99.90;;;;;;10521201;28;20113;-28
2023/01/14 14:39:34;;;;;;;0.95;0.70;;;12.00;99.90;;;;;;10510410;28;20056;-26
2023/01/14 14:44:36;;;;;;;2.00;0.65;;;11.60;99.90;;;;;;10516363;28;20131;-26
2023/01/14 14:49:38;;;;;;;1.60;0.55;;;12.00;99.90;;;;;;10514586;28;20563;-25
2023/01/14 14:54:42;;;;;;;1.00;0.75;;;11.90;99.90;;;;;;10527247;28;20168;-26
2023/01/14 14:59:44;;;;;;;0.52;0.40;;;11.90;99.90;;;;;;10517217;28;20541;-26
2023/01/14 15:04:47;;;;;;;1.75;0.70;;;11.90;99.90;;;;;;10514911;28;20052;-27
2023/01/14 15:09:51;;;;;;;0.45;0.45;;;11.60;99.90;;;;;;10512059;28;20078;-26
2023/01/14 15:14:58;;;;;;;1.55;1.10;;;11.90;99.90;;;;;;10512110;28;20109;-26
2023/01/14 15:20:00;;;;;;;1.58;0.65;;;12.20;99.90;;;;;;10515198;28;20115;-30
2023/01/14 15:25:05;;;;;;;1.05;0.95;;;11.50;99.90;;;;;;10507802;28;20080;-26
2023/01/14 15:30:22;;;;;;;1.85;0.73;;;11.70;99.90;;;;;;10526399;28;20051;-26
2023/01/14 15:35:27;;;;;;;4.30;2.15;;;12.10;99.90;;;;;;10532306;28;20101;-26
2023/01/14 15:40:39;;;;;;;3.85;2.05;;;12.10;99.90;;;;;;10520366;28;20058;-25
2023/01/14 15:45:45;;;;;;;4.90;1.17;;;11.80;99.90;;;;;;10519560;28;20067;-25
2023/01/14 15:50:55;;;;;;;14.18;2.58;;;11.80;99.90;;;;;;10534583;28;20077;-25
2023/01/14 15:56:14;;;;;;;12.90;2.13;;;11.50;99.90;;;;;;10533930;28;20124;-26
2023/01/14 16:01:19;;;;;;;16.52;3.38;;;11.30;99.90;;;;;;10524131;28;20133;-26
2023/01/14 16:06:30;;;;;;;14.02;2.70;;;11.10;99.90;;;;;;10526418;28;20058;-28
2023/01/14 16:11:38;;;;;;;23.33;3.85;;;10.90;99.90;;;;;;10523528;28;20056;-26
2023/01/14 16:16:39;;;;;;;18.30;3.20;;;11.00;99.90;;;;;;10514500;28;20080;-26
2023/01/14 16:21:41;;;;;;;14.32;2.72;;;10.90;99.90;;;;;;10521952;28;20105;-26
2023/01/14 16:26:45;;;;;;;14.00;2.83;;;11.10;99.90;;;;;;10522250;28;20094;-27
2023/01/14 16:31:47;;;;;;;18.45;3.15;;;11.00;99.90;;;;;;10524939;28;20044;-27
2023/01/14 16:36:49;;;;;;;20.90;2.70;;;11.10;99.90;;;;;;10527621;28;20473;-29
2023/01/14 16:41:52;;;;;;;29.75;3.63;;;11.10;99.90;;;;;;10504602;28;20456;-27
2023/01/14 16:46:54;;;;;;;34.80;5.90;;;11.30;99.90;;;;;;10497763;28;20048;-26
2023/01/14 16:51:57;;;;;;;37.75;4.32;;;11.20;99.90;;;;;;10524400;28;20074;-27
2023/01/14 16:57:00;;;;;;;34.70;4.85;;;11.00;99.90;;;;;;10522773;28;20135;-26
2023/01/14 17:02:02;;;;;;;48.08;6.30;;;11.00;99.90;;;;;;10525495;28;20044;-26
2023/01/14 17:07:04;;;;;;;38.53;4.63;;;10.90;99.90;;;;;;10520600;28;20526;-26
2023/01/14 17:17:34;;;;;;;30.58;4.40;;;10.90;99.90;;;;;;10511098;28;20051;-27
2023/01/14 17:22:35;;;;;;;38.80;3.85;;;11.00;99.90;;;;;;10522103;28;20065;-27
2023/01/14 17:27:39;;;;;;;25.33;3.63;;;11.00;99.90;;;;;;10512271;28;20058;-26
2023/01/14 17:32:42;;;;;;;28.83;3.53;;;10.80;99.90;;;;;;10538134;28;20403;-27
2023/01/14 17:37:45;;;;;;;37.77;5.67;;;10.80;99.90;;;;;;10526706;28;20047;-25
2023/01/14 17:42:50;;;;;;;16.63;2.67;;;10.70;99.90;;;;;;10526317;28;20494;-26
2023/01/14 17:47:52;;;;;;;14.85;3.38;;;10.90;99.90;;;;;;10522963;28;20105;-24
2023/01/14 17:52:54;;;;;;;22.95;2.88;;;10.80;99.90;;;;;;10520642;28;20458;-26
2023/01/14 17:57:57;;;;;;;18.80;2.20;;;11.00;99.90;;;;;;10524604;28;20089;-28
2023/01/14 18:02:59;;;;;;;12.85;2.63;;;11.40;99.90;;;;;;10521121;28;20048;-26
2023/01/14 18:08:01;;;;;;;20.83;3.30;;;10.80;99.90;;;;;;10506885;28;20071;-26
2023/01/14 18:13:04;;;;;;;10.93;2.13;;;10.50;99.90;;;;;;10512292;28;20090;-25
2023/01/14 18:18:06;;;;;;;21.42;3.90;;;10.50;99.90;;;;;;10509134;28;20068;-27
2023/01/14 18:23:08;;;;;;;17.20;3.22;;;10.30;99.90;;;;;;10521264;28;20171;-27
2023/01/14 18:28:11;;;;;;;26.70;2.47;;;10.40;99.90;;;;;;10521514;28;20423;-27
2023/01/14 18:33:12;;;;;;;;;;;8.60;99.90;;;;;;10521349;28;20129;-25
2023/01/14 18:38:14;;;;;;;20.45;3.65;;;8.70;99.90;;;;;;10523583;28;19973;-27
2023/01/14 18:43:18;;;;;;;13.93;3.17;;;8.60;99.90;;;;;;10508619;28;20597;-27
2023/01/14 18:48:19;;;;;;;11.25;2.33;;;8.70;99.90;;;;;;10528407;28;20117;-29
2023/01/14 18:53:21;;;;;;;10.75;1.95;;;8.40;99.90;;;;;;10526707;28;20112;-27
2023/01/14 18:58:25;;;;;;;13.00;2.03;;;8.50;99.90;;;;;;10525839;28;21430;-26
2023/01/14 19:03:26;;;;;;;16.90;2.90;;;8.40;99.90;;;;;;10512891;28;20523;-26
2023/01/14 19:08:28;;;;;;;11.25;1.85;;;7.90;99.90;;;;;;10522925;28;20095;-26
2023/01/14 19:13:32;;;;;;;13.95;3.20;;;7.90;99.90;;;;;;10517305;28;20062;-27
2023/01/14 19:18:34;;;;;;;;;;;8.20;99.90;;;;;;10521053;28;20078;-29
2023/01/14 19:23:36;;;;;;;13.40;3.50;;;8.70;99.90;;;;;;10512556;28;19963;-26
2023/01/14 19:28:39;;;;;;;10.40;2.58;;;8.70;99.90;;;;;;10524106;28;20044;-26
2023/01/14 19:33:41;;;;;;;16.20;3.30;;;8.30;99.90;;;;;;10523414;28;20093;-26
2023/01/14 19:38:43;;;;;;;11.98;2.00;;;8.60;99.90;;;;;;10521560;28;20072;-30
2023/01/14 19:43:46;;;;;;;11.30;3.05;;;9.10;99.90;;;;;;10521569;28;20496;-26
2023/01/14 19:48:49;;;;;;;11.00;2.28;;;8.50;99.90;;;;;;10526975;28;20048;-28
2023/01/14 19:53:51;;;;;;;15.47;2.33;;;8.60;99.90;;;;;;10523876;28;20054;-24
2023/01/14 19:58:56;;;;;;;15.93;2.33;;;8.70;99.90;;;;;;10520319;28;20044;-26
2023/01/14 20:03:59;;;;;;;15.07;2.45;;;8.50;99.90;;;;;;10520294;28;20139;-25
2023/01/14 20:09:02;;;;;;;13.93;1.65;;;8.60;99.90;;;;;;10519322;28;20500;-27
2023/01/14 20:14:06;;;;;;;4.57;1.80;;;8.90;99.90;;;;;;10515923;28;20091;-25
2023/01/14 20:19:11;;;;;;;14.93;2.13;;;8.60;99.90;;;;;;10517006;28;20048;-25
2023/01/14 20:24:13;;;;;;;13.07;2.30;;;8.40;99.90;;;;;;10529018;28;20405;-26
2023/01/14 20:29:16;;;;;;;12.75;1.65;;;8.50;99.90;;;;;;10520262;28;20454;-26
2023/01/14 20:34:18;;;;;;;;;;;8.30;99.90;;;;;;10529262;28;20633;-27
2023/01/14 20:39:22;;;;;;;18.92;3.33;;;8.40;99.90;;;;;;10519373;28;19928;-26
2023/01/14 20:49:44;;;;;;;15.15;1.73;;;8.60;99.90;;;;;;10530750;28;20052;-27
2023/01/14 20:54:46;;;;;;;9.52;1.38;;;8.30;99.90;;;;;;10530173;28;20063;-26
2023/01/14 20:59:51;;;;;;;12.87;1.90;;;8.30;99.90;;;;;;10523208;28;20455;-26
2023/01/14 21:04:53;;;;;;;15.63;2.55;;;8.30;99.90;;;;;;10534305;28;20052;-28
2023/01/14 21:09:55;;;;;;;14.68;2.00;;;8.10;99.90;;;;;;10531925;28;20052;-26
2023/01/14 21:25:40;;;;;;;9.93;1.60;;;8.90;99.90;;;;;;10521916;28;20472;-23
2023/01/14 21:30:45;;;;;;;20.48;2.28;;;8.60;99.90;;;;;;10531348;28;20538;-25
2023/01/14 21:35:47;;;;;;;13.43;1.98;;;8.60;99.90;;;;;;10535268;28;20142;-27
2023/01/14 21:43:24;;;;;;;4.95;1.15;;;8.80;99.90;;;;;;10532702;28;20117;-26
2023/01/14 21:46:13;;;;;;;13.13;1.70;;;8.60;99.90;;;;;;10529070;28;20238;-25
2023/01/14 21:51:15;;;;;;;5.20;1.80;;;8.30;99.90;;;;;;10525695;28;20105;-25
2023/01/14 21:56:18;;;;;;;4.97;1.23;;;8.60;99.90;;;;;;10534060;28;20054;-25
2023/01/14 22:01:21;;;;;;;21.45;1.80;;;8.70;99.90;;;;;;10532537;28;20064;-26
2023/01/14 22:06:23;;;;;;;15.52;1.40;;;8.40;99.90;;;;;;10531519;28;20522;-26
2023/01/14 22:11:25;;;;;;;14.20;2.28;;;8.40;99.90;;;;;;10533290;28;20048;-25
2023/01/14 22:16:28;;;;;;;11.02;1.70;;;8.60;99.90;;;;;;10529884;28;20448;-28
2023/01/14 22:21:30;;;;;;;;;;;8.50;99.90;;;;;;10509151;28;20047;-25
2023/01/14 22:26:32;;;;;;;11.65;2.92;;;8.80;99.90;;;;;;10527946;28;20016;-24
2023/01/14 22:31:35;;;;;;;10.27;1.88;;;8.80;99.90;;;;;;10528370;28;20056;-27
2023/01/14 22:36:37;;;;;;;;;;;8.80;99.90;;;;;;10530232;28;20055;-25
2023/01/14 22:41:38;;;;;;;8.63;1.60;;;8.60;99.90;;;;;;10531610;28;19928;-25
2023/01/14 22:46:42;;;;;;;7.35;1.63;;;8.70;99.90;;;;;;10510749;28;20403;-26
2023/01/14 22:51:44;;;;;;;;;;;8.60;99.90;;;;;;10532594;28;20497;-26
2023/01/14 22:56:46;;;;;;;9.70;2.67;;;8.70;99.90;;;;;;10526318;28;20280;-27
2023/01/14 23:01:50;;;;;;;14.73;2.65;;;8.30;99.90;;;;;;10523983;28;20112;-26
2023/01/14 23:06:51;;;;;;;;;;;8.40;99.90;;;;;;10519335;28;20070;-26
2023/01/14 23:11:53;;;;;;;14.57;2.20;;;8.70;99.90;;;;;;10518536;28;19927;-26
2023/01/14 23:27:35;;;;;;;11.98;1.63;;;8.40;99.90;;;;;;10514515;28;20048;-27
2023/01/14 23:32:39;;;;;;;15.00;2.42;;;8.60;99.90;;;;;;10536267;28;20138;-26
2023/01/14 23:37:41;;;;;;;12.93;2.40;;;8.40;99.90;;;;;;10528942;28;20048;-27
2023/01/14 23:42:43;;;;;;;19.33;2.72;;;8.50;99.90;;;;;;10527965;28;20083;-28
2023/01/14 23:47:46;;;;;;;9.65;2.40;;;8.60;99.90;;;;;;10521432;28;20040;-26
2023/01/14 23:52:47;;;;;;;;;;;8.50;99.90;;;;;;10524086;28;20129;-27
2023/01/14 23:57:49;;;;;;;14.45;2.33;;;8.80;99.90;;;;;;10535415;28;20026;-25
